Time;durP1;ratioP1;P1;durP2;ratioP2;P2;SDS_P1;SDS_P2;PMS_P1;PMS_P2;Temp;Humidity;BMP_temperature;BMP_pressure;BME280_temperature;BME280_humidity;BME280_pressure;Samples;Min_cycle;Max_cycle;Signal;HPM_P1;HPM_P2
2022/02/01 00:02:38;;;;;;;0.80;0.80;;;-4.40;99.90;;;;;;5045770;28;20291;-69
2022/02/01 00:15:19;;;;;;;0.90;0.90;;;-4.40;99.90;;;;;;5050213;28;20312;-69
2022/02/01 00:36:27;;;;;;;0.80;0.80;;;-4.20;99.90;;;;;;5052430;28;20197;-70
2022/02/01 00:38:59;;;;;;;0.80;0.80;;;-4.20;99.90;;;;;;5034547;28;20233;-69
2022/02/01 00:41:30;;;;;;;0.80;0.80;;;-4.20;99.90;;;;;;5016256;28;20213;-69
2022/02/01 00:43:56;;;;;;;0.85;0.85;;;-4.20;99.90;;;;;;5017089;28;20572;-70
2022/02/01 00:46:22;;;;;;;0.87;0.87;;;-4.20;99.90;;;;;;5049557;28;20189;-71
2022/02/01 00:48:47;;;;;;;0.82;0.82;;;-4.10;99.90;;;;;;5051162;28;20201;-69
2022/02/01 00:51:13;;;;;;;0.80;0.80;;;-4.10;99.90;;;;;;5050225;28;20205;-68
2022/02/01 00:53:41;;;;;;;0.90;0.90;;;-4.10;99.90;;;;;;5049225;28;20217;-68
2022/02/01 00:56:07;;;;;;;0.73;0.73;;;-4.10;99.90;;;;;;5035365;28;20312;-68
2022/02/01 00:58:33;;;;;;;0.80;0.80;;;-4.10;99.90;;;;;;5037108;28;20202;-68
2022/02/01 01:00:59;;;;;;;0.80;0.80;;;-4.10;99.90;;;;;;5046024;28;20233;-69
2022/02/01 01:03:25;;;;;;;0.73;0.73;;;-4.00;99.90;;;;;;5046635;28;20590;-68
2022/02/01 01:05:51;;;;;;;0.80;0.80;;;-4.10;99.90;;;;;;5038704;28;20202;-69
2022/02/01 01:08:17;;;;;;;0.70;0.70;;;-4.10;99.90;;;;;;5043080;28;20201;-68
2022/02/01 01:10:43;;;;;;;0.80;0.80;;;-4.10;99.90;;;;;;5045779;28;20568;-70
2022/02/01 01:15:48;;;;;;;0.70;0.70;;;-4.10;99.90;;;;;;5048816;28;20573;-69
2022/02/01 01:45:54;;;;;;;0.80;0.80;;;-4.00;99.90;;;;;;5049083;28;20641;-69
2022/02/01 01:53:49;;;;;;;0.70;0.70;;;-4.00;99.90;;;;;;5049578;28;20276;-69
2022/02/01 01:56:15;;;;;;;0.80;0.80;;;-4.00;99.90;;;;;;5037490;28;20213;-70
2022/02/01 01:58:40;;;;;;;0.90;0.90;;;-4.00;99.90;;;;;;5048960;28;20274;-69
2022/02/01 02:03:35;;;;;;;0.80;0.80;;;-4.00;99.90;;;;;;5046258;28;20653;-69
2022/02/01 02:06:00;;;;;;;0.80;0.80;;;-4.00;99.90;;;;;;5034357;28;20198;-69
2022/02/01 02:08:28;;;;;;;0.90;0.90;;;-4.00;99.90;;;;;;5048859;28;20218;-69
2022/02/01 02:11:06;;;;;;;0.80;0.80;;;-4.00;99.90;;;;;;5033905;28;20692;-69
2022/02/01 02:16:31;;;;;;;0.80;0.80;;;-4.10;99.90;;;;;;5045270;28;20575;-68
2022/02/01 02:18:57;;;;;;;0.70;0.70;;;-4.10;99.90;;;;;;5036185;28;20213;-68
2022/02/01 02:21:23;;;;;;;0.80;0.80;;;-4.10;99.90;;;;;;5044658;28;20220;-68
2022/02/01 02:23:48;;;;;;;0.70;0.70;;;-4.10;99.90;;;;;;5033813;28;20610;-69
2022/02/01 02:26:16;;;;;;;0.70;0.70;;;-4.10;99.90;;;;;;5048712;28;20291;-69
2022/02/01 02:28:43;;;;;;;0.80;0.80;;;-4.10;99.90;;;;;;5049085;28;20204;-70
2022/02/01 02:31:09;;;;;;;0.70;0.70;;;-4.10;99.90;;;;;;5049968;28;20297;-69
2022/02/01 02:33:35;;;;;;;0.80;0.80;;;-4.10;99.90;;;;;;5048611;28;20645;-69
2022/02/01 02:36:12;;;;;;;0.70;0.70;;;-4.10;99.90;;;;;;5048798;28;20213;-68
2022/02/01 02:38:43;;;;;;;0.77;0.77;;;-4.10;99.90;;;;;;5048822;28;20236;-69
2022/02/01 02:46:25;;;;;;;0.80;0.80;;;-4.20;99.90;;;;;;5048464;28;20212;-69
2022/02/01 02:48:52;;;;;;;0.80;0.80;;;-4.10;99.90;;;;;;5048724;28;20205;-69
2022/02/01 02:51:19;;;;;;;0.80;0.80;;;-4.10;99.90;;;;;;5038836;28;20216;-68
2022/02/01 02:53:45;;;;;;;0.80;0.80;;;-4.10;99.90;;;;;;5030952;28;20233;-69
2022/02/01 02:56:11;;;;;;;0.80;0.80;;;-4.10;99.90;;;;;;5046078;28;20229;-70
2022/02/01 02:58:38;;;;;;;0.70;0.70;;;-4.20;99.90;;;;;;5047888;28;20221;-68
2022/02/01 03:01:03;;;;;;;0.82;0.82;;;-4.20;99.90;;;;;;5033137;28;20222;-69
2022/02/01 03:03:29;;;;;;;0.80;0.80;;;-4.20;99.90;;;;;;5038833;28;20213;-69
2022/02/01 03:05:55;;;;;;;1.00;1.00;;;-4.10;99.90;;;;;;5045592;28;20201;-69
2022/02/01 03:08:22;;;;;;;0.80;0.80;;;-4.10;99.90;;;;;;5044064;28;20210;-69
2022/02/01 03:10:48;;;;;;;0.73;0.73;;;-4.10;99.90;;;;;;5044241;28;20207;-69
2022/02/01 03:13:27;;;;;;;0.80;0.80;;;-4.10;99.90;;;;;;5045628;28;20221;-68
2022/02/01 03:16:07;;;;;;;0.82;0.82;;;-4.10;99.90;;;;;;5045489;28;20205;-68
2022/02/01 03:21:17;;;;;;;0.80;0.80;;;-4.10;99.90;;;;;;5046843;28;20280;-68
2022/02/01 03:23:43;;;;;;;0.70;0.70;;;-4.20;99.90;;;;;;5046407;28;20209;-70
2022/02/01 03:26:09;;;;;;;0.77;0.77;;;-4.20;99.90;;;;;;5046805;28;20205;-69
2022/02/01 03:28:34;;;;;;;0.80;0.80;;;-4.20;99.90;;;;;;5047747;28;20205;-69
2022/02/01 03:31:00;;;;;;;0.70;0.70;;;-4.20;99.90;;;;;;5045403;28;20216;-68
2022/02/01 03:33:26;;;;;;;0.80;0.80;;;-4.20;99.90;;;;;;5047668;28;20302;-68
2022/02/01 03:35:51;;;;;;;0.80;0.80;;;-4.20;99.90;;;;;;5046747;28;20213;-69
2022/02/01 03:38:17;;;;;;;5.75;1.80;;;-4.20;99.90;;;;;;5047874;28;20205;-68
2022/02/01 03:40:43;;;;;;;0.80;0.80;;;-4.20;99.90;;;;;;5046354;28;20214;-69
2022/02/01 03:43:09;;;;;;;1.65;1.55;;;-4.20;99.90;;;;;;5046712;28;20210;-69
2022/02/01 03:45:34;;;;;;;0.80;0.80;;;-4.20;99.90;;;;;;5046800;28;20202;-69
2022/02/01 03:48:00;;;;;;;0.80;0.80;;;-4.20;99.90;;;;;;5038463;28;20194;-68
2022/02/01 03:50:26;;;;;;;0.80;0.80;;;-4.20;99.90;;;;;;5048997;28;20710;-68
2022/02/01 03:52:52;;;;;;;0.80;0.80;;;-4.20;99.90;;;;;;5046289;28;20205;-69
2022/02/01 03:55:19;;;;;;;0.75;0.75;;;-4.20;99.90;;;;;;5046342;28;20225;-69
2022/02/01 03:57:45;;;;;;;0.80;0.80;;;-4.20;99.90;;;;;;5046586;28;20279;-68
2022/02/01 04:00:12;;;;;;;0.80;0.80;;;-4.10;99.90;;;;;;5045467;28;20205;-68
2022/02/01 04:02:37;;;;;;;0.80;0.80;;;-4.20;99.90;;;;;;5029982;28;20245;-68
2022/02/01 04:05:04;;;;;;;0.80;0.80;;;-4.20;99.90;;;;;;5043342;28;20237;-69
2022/02/01 04:07:30;;;;;;;0.73;0.73;;;-4.20;99.90;;;;;;5046316;28;20572;-69
2022/02/01 04:09:56;;;;;;;0.70;0.70;;;-4.20;99.90;;;;;;5038168;28;20198;-68
2022/02/01 04:12:23;;;;;;;0.80;0.80;;;-4.20;99.90;;;;;;5039588;28;20206;-70
2022/02/01 04:14:48;;;;;;;0.70;0.70;;;-4.20;99.90;;;;;;5044629;28;20198;-69
2022/02/01 04:17:14;;;;;;;0.80;0.80;;;-4.20;99.90;;;;;;5047385;28;20205;-69
2022/02/01 04:19:41;;;;;;;0.80;0.80;;;-4.20;99.90;;;;;;5043939;28;20235;-69
2022/02/01 04:22:07;;;;;;;0.80;0.80;;;-4.20;99.90;;;;;;5045150;28;20218;-70
2022/02/01 04:24:35;;;;;;;0.70;0.70;;;-4.20;99.90;;;;;;5037732;28;20664;-69
2022/02/01 04:27:01;;;;;;;0.80;0.80;;;-4.20;99.90;;;;;;5049861;28;20247;-70
2022/02/01 04:29:27;;;;;;;0.77;0.77;;;-4.20;99.90;;;;;;5049719;28;20229;-70
2022/02/01 04:31:53;;;;;;;0.80;0.80;;;-4.20;99.90;;;;;;5050978;28;20614;-70
2022/02/01 04:34:19;;;;;;;0.85;0.85;;;-4.20;99.90;;;;;;5049611;28;20236;-70
2022/02/01 04:36:45;;;;;;;0.88;0.88;;;-4.20;99.90;;;;;;5049643;28;20575;-69
2022/02/01 04:39:10;;;;;;;0.80;0.80;;;-4.20;99.90;;;;;;5051617;28;20231;-69
2022/02/01 04:41:36;;;;;;;0.77;0.77;;;-4.30;99.90;;;;;;5050614;28;20237;-70
2022/02/01 04:44:03;;;;;;;0.70;0.70;;;-4.40;99.90;;;;;;5037468;28;20239;-70
2022/02/01 04:46:29;;;;;;;0.73;0.73;;;-4.30;99.90;;;;;;5047741;28;20206;-69
2022/02/01 04:49:01;;;;;;;0.87;0.87;;;-4.40;99.90;;;;;;5048183;28;20236;-70
2022/02/01 04:51:29;;;;;;;0.80;0.80;;;-4.40;99.90;;;;;;5048476;28;20212;-69
2022/02/01 04:53:55;;;;;;;0.70;0.70;;;-4.40;99.90;;;;;;5048081;28;20263;-70
2022/02/01 04:56:21;;;;;;;0.80;0.80;;;-4.50;99.90;;;;;;5050040;28;20275;-70
2022/02/01 04:58:46;;;;;;;0.80;0.80;;;-4.40;99.90;;;;;;5049168;28;20672;-70
2022/02/01 05:01:13;;;;;;;0.80;0.80;;;-4.40;99.90;;;;;;5050019;28;20576;-70
2022/02/01 05:03:40;;;;;;;0.90;0.90;;;-4.40;99.90;;;;;;5047742;28;20209;-67
2022/02/01 05:06:07;;;;;;;0.70;0.70;;;-4.40;99.90;;;;;;5047872;28;20633;-69
2022/02/01 05:08:33;;;;;;;0.73;0.73;;;-4.40;99.90;;;;;;5048888;28;20575;-70
2022/02/01 05:10:59;;;;;;;0.70;0.70;;;-4.40;99.90;;;;;;5042154;28;20217;-69
2022/02/01 05:15:58;;;;;;;0.77;0.77;;;-4.50;99.90;;;;;;5048942;28;20198;-70
2022/02/01 05:18:26;;;;;;;0.80;0.80;;;-4.50;99.90;;;;;;5048952;28;20201;-70
2022/02/01 05:21:02;;;;;;;0.80;0.80;;;-4.50;99.90;;;;;;5047321;28;20210;-69
2022/02/01 05:23:27;;;;;;;0.90;0.90;;;-4.50;99.90;;;;;;5048634;28;20276;-70
2022/02/01 05:25:53;;;;;;;0.80;0.80;;;-4.60;99.90;;;;;;5048738;28;20328;-70
2022/02/01 05:28:20;;;;;;;0.70;0.70;;;-4.60;99.90;;;;;;5047299;28;20206;-70
2022/02/01 05:30:46;;;;;;;0.90;0.90;;;-4.60;99.90;;;;;;5048028;28;20205;-70
2022/02/01 05:33:11;;;;;;;0.70;0.70;;;-4.60;99.90;;;;;;5049325;28;21112;-70
2022/02/01 05:35:37;;;;;;;0.70;0.70;;;-4.50;99.90;;;;;;5050607;28;20245;-70
2022/02/01 05:38:03;;;;;;;0.75;0.75;;;-4.50;99.90;;;;;;5050328;28;20223;-70
2022/02/01 05:40:29;;;;;;;0.90;0.90;;;-4.60;99.90;;;;;;5037910;28;20284;-70
2022/02/01 05:45:25;;;;;;;0.80;0.80;;;-4.50;99.90;;;;;;5049346;28;20201;-69
2022/02/01 05:47:51;;;;;;;0.80;0.80;;;-4.60;99.90;;;;;;5045058;28;20205;-69
2022/02/01 05:50:17;;;;;;;0.63;0.63;;;-4.60;99.90;;;;;;5049353;28;20657;-69
2022/02/01 05:52:43;;;;;;;0.83;0.83;;;-4.60;99.90;;;;;;5048625;28;20247;-69
2022/02/01 05:55:11;;;;;;;0.70;0.70;;;-4.50;99.90;;;;;;5045670;28;20221;-69
2022/02/01 05:57:37;;;;;;;0.90;0.90;;;-4.50;99.90;;;;;;5049024;28;20573;-69
2022/02/01 06:00:05;;;;;;;0.80;0.80;;;-4.50;99.90;;;;;;5045910;28;20201;-70
2022/02/01 06:02:30;;;;;;;0.70;0.70;;;-4.50;99.90;;;;;;5048556;28;20225;-68
2022/02/01 06:04:56;;;;;;;0.80;0.80;;;-4.60;99.90;;;;;;5045658;28;20205;-68
2022/02/01 06:07:22;;;;;;;0.80;0.80;;;-4.60;99.90;;;;;;5048860;28;20595;-69
2022/02/01 06:09:47;;;;;;;0.80;0.80;;;-4.70;99.90;;;;;;5045299;28;20200;-69
2022/02/01 06:12:13;;;;;;;0.83;0.83;;;-4.70;99.90;;;;;;5047951;28;20201;-68
2022/02/01 06:14:39;;;;;;;0.80;0.80;;;-4.60;99.90;;;;;;5047602;28;20216;-68
2022/02/01 06:17:06;;;;;;;0.80;0.80;;;-4.60;99.90;;;;;;5046596;28;20206;-70
2022/02/01 06:19:31;;;;;;;0.83;0.83;;;-4.60;99.90;;;;;;5032485;28;20207;-69
2022/02/01 06:21:58;;;;;;;0.80;0.80;;;-4.70;99.90;;;;;;5048579;28;20214;-69
2022/02/01 06:24:23;;;;;;;0.70;0.70;;;-4.70;99.90;;;;;;5048236;28;20216;-69
2022/02/01 06:26:49;;;;;;;0.80;0.80;;;-4.60;99.90;;;;;;5049967;28;20190;-69
2022/02/01 06:29:15;;;;;;;0.80;0.80;;;-4.70;99.90;;;;;;5050106;28;20264;-69
2022/02/01 06:31:41;;;;;;;0.80;0.80;;;-4.70;99.90;;;;;;5048246;28;20732;-70
2022/02/01 06:34:06;;;;;;;0.80;0.80;;;-4.80;99.90;;;;;;5045722;28;20583;-71
2022/02/01 06:36:32;;;;;;;0.83;0.83;;;-4.80;99.90;;;;;;5034200;28;20210;-70
2022/02/01 06:39:03;;;;;;;0.80;0.80;;;-4.70;99.90;;;;;;5045551;28;20201;-70
2022/02/01 06:41:28;;;;;;;0.80;0.80;;;-4.70;99.90;;;;;;5048139;28;20205;-69
2022/02/01 06:43:54;;;;;;;0.80;0.80;;;-4.60;99.90;;;;;;5046873;28;20582;-70
2022/02/01 06:46:20;;;;;;;0.80;0.80;;;-4.70;99.90;;;;;;5048149;28;20336;-70
2022/02/01 06:48:45;;;;;;;1.00;1.00;;;-4.70;99.90;;;;;;5046404;28;20216;-70
2022/02/01 06:51:16;;;;;;;0.80;0.80;;;-4.70;99.90;;;;;;5046981;28;20615;-69
2022/02/01 06:53:44;;;;;;;0.80;0.80;;;-4.60;99.90;;;;;;5044580;28;20201;-70
2022/02/01 06:56:17;;;;;;;0.80;0.80;;;-4.70;99.90;;;;;;5045650;28;20282;-69
2022/02/01 06:58:44;;;;;;;0.80;0.80;;;-4.70;99.90;;;;;;5040989;28;20205;-70
2022/02/01 07:01:10;;;;;;;0.80;0.80;;;-4.70;99.90;;;;;;5038666;28;20558;-69
2022/02/01 07:03:37;;;;;;;0.90;0.90;;;-4.70;99.90;;;;;;5046966;28;20599;-69
2022/02/01 07:06:05;;;;;;;0.80;0.80;;;-4.70;99.90;;;;;;5045781;28;20201;-69
2022/02/01 07:08:31;;;;;;;3.73;2.07;;;-4.70;99.90;;;;;;5046823;28;20288;-69
2022/02/01 07:10:57;;;;;;;0.80;0.80;;;-4.70;99.90;;;;;;5035841;28;20316;-70
2022/02/01 07:13:22;;;;;;;0.80;0.80;;;-4.70;99.90;;;;;;5047821;28;20232;-70
2022/02/01 07:15:48;;;;;;;0.73;0.73;;;-4.70;99.90;;;;;;5047041;28;20293;-69
2022/02/01 07:18:13;;;;;;;0.70;0.70;;;-4.60;99.90;;;;;;5048339;28;20240;-69
2022/02/01 07:20:39;;;;;;;0.80;0.80;;;-4.60;99.90;;;;;;5048959;28;20611;-69
2022/02/01 07:23:10;;;;;;;0.80;0.80;;;-4.60;99.90;;;;;;5049350;28;20213;-69
2022/02/01 07:25:44;;;;;;;0.73;0.73;;;-4.60;99.90;;;;;;5047400;28;20681;-70
2022/02/01 07:28:10;;;;;;;0.73;0.73;;;-4.60;99.90;;;;;;5048379;28;20200;-70
2022/02/01 07:30:36;;;;;;;0.80;0.80;;;-4.60;99.90;;;;;;5048373;28;20707;-70
2022/02/01 07:33:02;;;;;;;0.80;0.80;;;-4.60;99.90;;;;;;5033953;28;20214;-70
2022/02/01 07:35:30;;;;;;;0.75;0.75;;;-4.60;99.90;;;;;;5045164;28;20576;-70
2022/02/01 07:37:58;;;;;;;0.80;0.80;;;-4.50;99.90;;;;;;5044273;28;20213;-69
2022/02/01 07:40:24;;;;;;;0.80;0.80;;;-4.50;99.90;;;;;;5046763;28;20208;-70
2022/02/01 07:42:50;;;;;;;0.80;0.80;;;-4.60;99.90;;;;;;5035719;28;20681;-69
2022/02/01 07:45:19;;;;;;;0.73;0.73;;;-4.60;99.90;;;;;;5043386;28;20217;-69
2022/02/01 07:47:44;;;;;;;0.73;0.73;;;-4.60;99.90;;;;;;5035284;28;20234;-70
2022/02/01 07:50:11;;;;;;;0.70;0.70;;;-4.50;99.90;;;;;;5042754;28;20237;-70
2022/02/01 07:52:37;;;;;;;0.80;0.80;;;-4.50;99.90;;;;;;5036196;28;20222;-69
2022/02/01 07:55:04;;;;;;;0.97;0.97;;;-4.40;99.90;;;;;;5041447;28;20233;-70
2022/02/01 07:57:31;;;;;;;0.80;0.80;;;-4.40;99.90;;;;;;5042133;28;20210;-70
2022/02/01 07:59:57;;;;;;;0.80;0.80;;;-4.50;99.90;;;;;;5043197;28;20700;-70
2022/02/01 08:02:25;;;;;;;0.75;0.75;;;-4.40;99.90;;;;;;5042694;28;20213;-70
2022/02/01 08:04:57;;;;;;;0.80;0.80;;;-4.40;99.90;;;;;;5041262;28;20228;-69
2022/02/01 08:07:23;;;;;;;0.80;0.80;;;-4.40;99.90;;;;;;5041539;28;20194;-69
2022/02/01 08:09:53;;;;;;;0.80;0.80;;;-4.40;99.90;;;;;;5034893;28;20289;-69
2022/02/01 08:18:00;;;;;;;0.70;0.70;;;-4.30;99.90;;;;;;5041920;28;20260;-69
2022/02/01 08:20:29;;;;;;;0.70;0.70;;;-4.30;99.90;;;;;;5045615;28;20684;-69
2022/02/01 08:25:23;;;;;;;0.80;0.80;;;-4.20;99.90;;;;;;5041393;28;20210;-70
2022/02/01 08:27:49;;;;;;;0.80;0.80;;;-4.20;99.90;;;;;;5034599;28;20571;-70
2022/02/01 08:30:15;;;;;;;0.80;0.80;;;-4.20;99.90;;;;;;5044118;28;20224;-70
2022/02/01 08:32:40;;;;;;;0.80;0.80;;;-4.20;99.90;;;;;;5026773;28;20241;-69
2022/02/01 08:35:07;;;;;;;0.70;0.70;;;-4.10;99.90;;;;;;5034536;28;20292;-70
2022/02/01 08:37:33;;;;;;;0.80;0.80;;;-4.20;99.90;;;;;;5034327;28;20206;-69
2022/02/01 08:39:59;;;;;;;0.87;0.87;;;-4.20;99.90;;;;;;5041213;28;20224;-70
2022/02/01 08:42:25;;;;;;;0.80;0.80;;;-4.20;99.90;;;;;;5032831;28;20287;-69
2022/02/01 08:44:53;;;;;;;0.70;0.70;;;-4.20;99.90;;;;;;5040662;28;20260;-69
2022/02/01 08:47:19;;;;;;;0.70;0.70;;;-4.30;99.90;;;;;;5042803;28;20202;-70
2022/02/01 08:49:44;;;;;;;0.80;0.80;;;-4.30;99.90;;;;;;5039524;28;20201;-70
2022/02/01 08:52:15;;;;;;;0.80;0.80;;;-4.30;99.90;;;;;;5034945;28;20580;-69
2022/02/01 08:54:42;;;;;;;0.80;0.80;;;-4.30;99.90;;;;;;5032044;28;20549;-69
2022/02/01 08:57:21;;;;;;;0.70;0.70;;;-4.40;99.90;;;;;;5034285;28;20203;-70
2022/02/01 08:59:51;;;;;;;0.80;0.80;;;-4.40;99.90;;;;;;5033799;28;20200;-70
2022/02/01 09:02:26;;;;;;;0.80;0.80;;;-4.30;99.90;;;;;;5049957;28;20240;-69
2022/02/01 09:04:53;;;;;;;0.82;0.82;;;-4.30;99.90;;;;;;5047850;28;20212;-69
2022/02/01 09:07:19;;;;;;;0.75;0.75;;;-4.20;99.90;;;;;;5048300;28;20255;-70
2022/02/01 09:09:45;;;;;;;0.80;0.80;;;-4.10;99.90;;;;;;5049030;28;20282;-70
2022/02/01 09:12:11;;;;;;;0.80;0.80;;;-4.20;99.90;;;;;;5047763;28;20664;-69
2022/02/01 09:14:41;;;;;;;1.20;1.10;;;-4.20;99.90;;;;;;5047444;28;20205;-69
2022/02/01 09:17:07;;;;;;;1.00;1.00;;;-4.20;99.90;;;;;;5049058;28;20285;-70
2022/02/01 09:19:33;;;;;;;0.70;0.70;;;-4.20;99.90;;;;;;5048491;28;20559;-69
2022/02/01 09:22:02;;;;;;;0.65;0.65;;;-4.20;99.90;;;;;;5048755;28;20207;-69
2022/02/01 09:24:29;;;;;;;0.80;0.80;;;-4.20;99.90;;;;;;5036949;28;20190;-69
2022/02/01 09:26:55;;;;;;;0.90;0.90;;;-4.10;99.90;;;;;;5016418;28;20197;-69
2022/02/01 09:29:22;;;;;;;0.80;0.80;;;-4.10;99.90;;;;;;5050815;28;20653;-69
2022/02/01 09:31:49;;;;;;;0.80;0.80;;;-4.20;99.90;;;;;;5031768;28;20202;-69
2022/02/01 09:34:15;;;;;;;0.77;0.77;;;-4.20;99.90;;;;;;5032763;28;20650;-69
2022/02/01 09:36:40;;;;;;;0.80;0.80;;;-4.20;99.90;;;;;;5048117;28;20288;-69
2022/02/01 09:39:08;;;;;;;0.80;0.80;;;-4.10;99.90;;;;;;5048532;28;20650;-68
2022/02/01 09:41:37;;;;;;;0.80;0.80;;;-4.10;99.90;;;;;;5035329;28;20210;-69
2022/02/01 09:44:04;;;;;;;0.80;0.80;;;-4.10;99.90;;;;;;5045423;28;20205;-69
2022/02/01 09:46:30;;;;;;;0.80;0.80;;;-4.10;99.90;;;;;;5049340;28;20734;-69
2022/02/01 09:48:57;;;;;;;0.60;0.60;;;-4.10;99.90;;;;;;5048369;28;20193;-69
2022/02/01 09:51:23;;;;;;;0.80;0.80;;;-4.00;99.90;;;;;;5048151;28;20623;-68
2022/02/01 09:53:48;;;;;;;0.70;0.70;;;-4.00;99.90;;;;;;5049298;28;20213;-71
2022/02/01 09:56:15;;;;;;;1.08;1.08;;;-4.00;99.90;;;;;;5045766;28;20316;-70
2022/02/01 09:58:41;;;;;;;0.75;0.75;;;-4.00;99.90;;;;;;5049082;28;20212;-69
2022/02/01 10:01:25;;;;;;;0.75;0.75;;;-4.10;99.90;;;;;;5048118;28;20218;-69
2022/02/01 10:04:03;;;;;;;0.80;0.80;;;-4.10;99.90;;;;;;5049175;28;20280;-69
2022/02/01 10:06:30;;;;;;;0.90;0.90;;;-4.00;99.90;;;;;;5046447;28;20208;-69
2022/02/01 10:09:06;;;;;;;0.80;0.80;;;-4.00;99.90;;;;;;5044359;28;20228;-70
2022/02/01 10:11:41;;;;;;;0.80;0.80;;;-4.00;99.90;;;;;;5032703;28;20201;-69
2022/02/01 10:14:11;;;;;;;0.80;0.80;;;-3.90;99.90;;;;;;5037789;28;20209;-69
2022/02/01 10:16:55;;;;;;;0.80;0.80;;;-3.90;99.90;;;;;;5048693;28;20688;-69
2022/02/01 10:19:22;;;;;;;1.10;1.00;;;-3.80;99.90;;;;;;5044507;28;20206;-70
2022/02/01 10:21:59;;;;;;;0.60;0.60;;;-3.80;99.90;;;;;;5047176;28;20672;-69
2022/02/01 10:24:39;;;;;;;0.70;0.70;;;-3.80;99.90;;;;;;5048523;28;20219;-70
2022/02/01 10:27:13;;;;;;;0.80;0.80;;;-3.70;99.90;;;;;;5039403;28;20198;-69
2022/02/01 10:30:07;;;;;;;0.70;0.70;;;-3.80;99.90;;;;;;5042723;28;20209;-69
2022/02/01 10:35:24;;;;;;;0.80;0.80;;;-3.60;99.90;;;;;;5048574;28;20201;-69
2022/02/01 10:38:03;;;;;;;0.77;0.77;;;-3.60;99.90;;;;;;5044892;28;20218;-69
2022/02/01 10:40:43;;;;;;;0.90;0.90;;;-3.60;99.90;;;;;;5048306;28;20232;-73
2022/02/01 10:43:22;;;;;;;0.73;0.73;;;-3.70;99.90;;;;;;5048423;28;20677;-69
2022/02/01 10:45:51;;;;;;;0.80;0.80;;;-3.80;99.90;;;;;;5047616;28;20207;-69
2022/02/01 10:48:22;;;;;;;0.75;0.75;;;-3.70;99.90;;;;;;5045961;28;20205;-69
2022/02/01 10:51:02;;;;;;;0.77;0.77;;;-3.70;99.90;;;;;;5047142;28;20209;-69
2022/02/01 10:53:28;;;;;;;0.80;0.80;;;-3.80;99.90;;;;;;5047311;28;20299;-69
2022/02/01 10:55:55;;;;;;;0.80;0.80;;;-3.70;99.90;;;;;;5046969;28;20725;-69
2022/02/01 10:58:20;;;;;;;0.80;0.80;;;-3.80;99.90;;;;;;5045558;28;20209;-70
2022/02/01 11:00:47;;;;;;;0.85;0.85;;;-3.80;99.90;;;;;;5046884;28;20212;-69
2022/02/01 11:03:15;;;;;;;0.70;0.70;;;-3.80;99.90;;;;;;5045682;28;20201;-69
2022/02/01 11:05:45;;;;;;;0.80;0.80;;;-3.70;99.90;;;;;;5046923;28;20197;-69
2022/02/01 11:08:14;;;;;;;0.80;0.80;;;-3.70;99.90;;;;;;5045715;28;20232;-68
2022/02/01 11:10:48;;;;;;;0.77;0.77;;;-3.80;99.90;;;;;;5035119;28;20202;-69
2022/02/01 11:13:15;;;;;;;0.80;0.80;;;-3.70;99.90;;;;;;5041672;28;20205;-69
2022/02/01 11:15:55;;;;;;;0.70;0.70;;;-3.70;99.90;;;;;;5047867;28;20690;-68
2022/02/01 11:18:25;;;;;;;0.80;0.80;;;-3.70;99.90;;;;;;5045896;28;20208;-69
2022/02/01 11:21:11;;;;;;;1.27;1.17;;;-3.70;99.90;;;;;;5045446;28;20197;-69
2022/02/01 11:24:02;;;;;;;0.80;0.80;;;-3.90;99.90;;;;;;5044275;28;20571;-69
2022/02/01 11:26:38;;;;;;;0.80;0.80;;;-3.90;99.90;;;;;;5045314;28;20236;-69
2022/02/01 11:31:52;;;;;;;0.80;0.80;;;-3.90;99.90;;;;;;5051649;28;20205;-69
2022/02/01 11:34:25;;;;;;;0.80;0.80;;;-4.00;99.90;;;;;;5049522;28;20666;-69
2022/02/01 11:37:03;;;;;;;0.80;0.80;;;-4.00;99.90;;;;;;5051794;28;20210;-68
2022/02/01 11:39:30;;;;;;;0.80;0.80;;;-4.00;99.90;;;;;;5050671;28;20639;-69
2022/02/01 11:41:57;;;;;;;0.73;0.73;;;-3.90;99.90;;;;;;5050683;28;20259;-67
2022/02/01 11:44:45;;;;;;;0.70;0.70;;;-3.90;99.90;;;;;;5050537;28;20304;-67
2022/02/01 11:47:18;;;;;;;0.90;0.90;;;-3.90;99.90;;;;;;5051700;28;20644;-67
2022/02/01 11:50:14;;;;;;;0.80;0.80;;;-4.00;99.90;;;;;;5048119;28;20202;-68
2022/02/01 11:52:48;;;;;;;0.80;0.80;;;-3.90;99.90;;;;;;5052155;28;20723;-68
2022/02/01 11:55:17;;;;;;;0.80;0.80;;;-3.90;99.90;;;;;;5051926;28;20274;-68
2022/02/01 11:57:45;;;;;;;0.80;0.80;;;-3.90;99.90;;;;;;5052658;28;20202;-69
2022/02/01 12:00:18;;;;;;;0.80;0.80;;;-4.00;99.90;;;;;;5051715;28;20201;-68
2022/02/01 12:02:53;;;;;;;0.80;0.80;;;-4.00;99.90;;;;;;5050650;28;20213;-69
2022/02/01 12:05:28;;;;;;;0.90;0.90;;;-4.00;99.90;;;;;;5052602;28;20224;-70
2022/02/01 12:08:04;;;;;;;0.80;0.80;;;-4.00;99.90;;;;;;5016133;28;20210;-68
2022/02/01 12:10:38;;;;;;;0.70;0.70;;;-4.00;99.90;;;;;;5039097;28;20202;-69
2022/02/01 12:13:04;;;;;;;0.70;0.70;;;-4.00;99.90;;;;;;5050547;28;20283;-68
2022/02/01 12:15:32;;;;;;;0.80;0.80;;;-3.90;99.90;;;;;;5051595;28;20209;-68
2022/02/01 12:18:08;;;;;;;0.80;0.80;;;-3.90;99.90;;;;;;5049576;28;20281;-69
2022/02/01 12:20:38;;;;;;;0.80;0.80;;;-3.90;99.90;;;;;;5051175;28;20683;-69
2022/02/01 12:23:20;;;;;;;0.80;0.80;;;-4.00;99.90;;;;;;5050791;28;20294;-69
2022/02/01 12:25:45;;;;;;;0.80;0.80;;;-3.90;99.90;;;;;;5051494;28;20203;-68
2022/02/01 12:28:17;;;;;;;0.80;0.80;;;-3.80;99.90;;;;;;5051717;28;20561;-68
2022/02/01 12:30:43;;;;;;;0.80;0.80;;;-3.80;99.90;;;;;;5050671;28;20198;-69
2022/02/01 12:33:19;;;;;;;0.90;0.90;;;-3.90;99.90;;;;;;5047916;28;20768;-68
2022/02/01 12:35:45;;;;;;;2.00;1.83;;;-3.90;99.90;;;;;;5050825;28;20201;-69
2022/02/01 12:38:23;;;;;;;0.75;0.75;;;-3.90;99.90;;;;;;5050754;28;20716;-68
2022/02/01 12:41:11;;;;;;;0.80;0.80;;;-3.90;99.90;;;;;;5048169;28;20205;-69
2022/02/01 12:43:56;;;;;;;0.70;0.70;;;-3.90;99.90;;;;;;5049103;28;20209;-68
2022/02/01 12:46:41;;;;;;;0.80;0.80;;;-3.80;99.90;;;;;;5051523;28;20295;-68
2022/02/01 12:49:07;;;;;;;0.80;0.80;;;-3.70;99.90;;;;;;5050646;28;20197;-67
2022/02/01 12:51:48;;;;;;;0.88;0.88;;;-3.70;99.90;;;;;;5051880;28;20692;-67
2022/02/01 12:54:28;;;;;;;0.80;0.80;;;-3.70;99.90;;;;;;5051266;28;20201;-69
2022/02/01 12:57:12;;;;;;;0.80;0.80;;;-3.70;99.90;;;;;;5032947;28;20237;-68
2022/02/01 12:59:37;;;;;;;0.73;0.73;;;-3.70;99.90;;;;;;5049238;28;20213;-68
2022/02/01 13:02:09;;;;;;;0.77;0.77;;;-3.60;99.90;;;;;;5048733;28;20210;-69
2022/02/01 13:04:35;;;;;;;0.70;0.70;;;-3.60;99.90;;;;;;5049051;28;20291;-69
2022/02/01 13:07:02;;;;;;;0.70;0.70;;;-3.60;99.90;;;;;;5051092;28;20276;-69
2022/02/01 13:15:09;;;;;;;0.80;0.80;;;-3.60;99.90;;;;;;5018364;28;20205;-69
2022/02/01 13:20:10;;;;;;;0.70;0.70;;;-3.70;99.90;;;;;;5048944;28;20508;-68
2022/02/01 13:22:47;;;;;;;0.80;0.80;;;-3.80;99.90;;;;;;5047330;28;20296;-68
2022/02/01 13:25:14;;;;;;;0.90;0.90;;;-3.80;99.90;;;;;;5047423;28;20289;-68
2022/02/01 13:27:40;;;;;;;0.70;0.70;;;-3.80;99.90;;;;;;5049738;28;20205;-68
2022/02/01 13:30:13;;;;;;;0.80;0.80;;;-3.80;99.90;;;;;;5050783;28;20193;-68
2022/02/01 13:32:42;;;;;;;0.80;0.80;;;-3.90;99.90;;;;;;5016147;28;20206;-69
2022/02/01 13:35:10;;;;;;;0.80;0.80;;;-3.80;99.90;;;;;;5050670;28;20688;-68
2022/02/01 13:37:47;;;;;;;0.80;0.80;;;-3.80;99.90;;;;;;5051028;28;20326;-68
2022/02/01 13:40:30;;;;;;;0.70;0.70;;;-3.80;99.90;;;;;;5050157;28;20737;-69
2022/02/01 13:42:57;;;;;;;0.90;0.90;;;-3.70;99.90;;;;;;5015022;28;20272;-69
2022/02/01 13:45:36;;;;;;;0.80;0.80;;;-3.80;99.90;;;;;;5049429;28;20567;-68
2022/02/01 13:48:03;;;;;;;0.80;0.80;;;-3.80;99.90;;;;;;5016047;28;20666;-70
2022/02/01 13:50:28;;;;;;;0.80;0.80;;;-3.80;99.90;;;;;;5050571;28;20208;-70
2022/02/01 13:53:01;;;;;;;0.80;0.80;;;-3.80;99.90;;;;;;5049688;28;20205;-68
2022/02/01 13:55:28;;;;;;;0.70;0.70;;;-3.70;99.90;;;;;;5047959;28;20236;-69
2022/02/01 13:58:01;;;;;;;0.80;0.80;;;-3.90;99.90;;;;;;5049085;28;20212;-68
2022/02/01 14:00:32;;;;;;;0.70;0.70;;;-3.90;99.90;;;;;;5048948;28;20222;-69
2022/02/01 14:06:44;;;;;;;0.70;0.70;;;-3.90;99.90;;;;;;5046955;28;20289;-68
2022/02/01 14:23:00;;;;;;;0.70;0.70;;;-3.70;99.90;;;;;;5041487;28;20224;-69
2022/02/01 14:35:43;;;;;;;0.70;0.70;;;-4.00;99.90;;;;;;5047616;28;20250;-69
2022/02/01 14:43:51;;;;;;;0.73;0.73;;;-4.00;99.90;;;;;;5014830;28;20238;-69
2022/02/01 14:46:17;;;;;;;0.70;0.70;;;-4.10;99.90;;;;;;5030241;28;20198;-69
2022/02/01 14:48:42;;;;;;;0.80;0.80;;;-4.10;99.90;;;;;;5032268;28;20201;-71
2022/02/01 14:51:09;;;;;;;0.80;0.80;;;-4.10;99.90;;;;;;5049739;28;20276;-72
2022/02/01 14:53:35;;;;;;;0.80;0.80;;;-4.10;99.90;;;;;;5031900;28;20547;-69
2022/02/01 14:56:18;;;;;;;0.70;0.70;;;-4.10;99.90;;;;;;5049571;28;20294;-68
2022/02/01 15:06:59;;;;;;;0.70;0.70;;;-4.20;99.90;;;;;;5036784;28;20195;-69
2022/02/01 15:14:43;;;;;;;0.67;0.67;;;-4.10;99.90;;;;;;5025573;28;20671;-69
2022/02/01 15:17:14;;;;;;;0.80;0.80;;;-4.30;99.90;;;;;;5048110;28;20255;-70
2022/02/01 15:19:40;;;;;;;0.90;0.90;;;-4.30;99.90;;;;;;5035193;28;20225;-68
2022/02/01 15:22:06;;;;;;;0.73;0.73;;;-4.30;99.90;;;;;;5047880;28;20205;-69
2022/02/01 15:24:31;;;;;;;0.70;0.70;;;-4.40;99.90;;;;;;5046608;28;20573;-68
2022/02/01 15:26:58;;;;;;;0.80;0.80;;;-4.30;99.90;;;;;;5047716;28;20186;-69
2022/02/01 15:29:24;;;;;;;6.33;2.60;;;-4.30;99.90;;;;;;5048161;28;20983;-68